sensor_id;sensor_type;location;lat;lon;timestamp;P1;durP1;ratioP1;P2;durP2;ratioP2
29168;SDS011;16219;42.864;23.360;2022-08-14T00:00:10;1.77;;;1.65;;
29168;SDS011;16219;42.864;23.360;2022-08-14T00:02:40;2.38;;;2.03;;
29168;SDS011;16219;42.864;23.360;2022-08-14T00:05:09;1.27;;;1.17;;
29168;SDS011;16219;42.864;23.360;2022-08-14T00:07:38;4.38;;;2.40;;
29168;SDS011;16219;42.864;23.360;2022-08-14T00:10:06;3.70;;;1.30;;
29168;SDS011;16219;42.864;23.360;2022-08-14T00:12:36;2.13;;;1.95;;
29168;SDS011;16219;42.864;23.360;2022-08-14T00:15:07;1.98;;;1.75;;
29168;SDS011;16219;42.864;23.360;2022-08-14T00:17:36;8.90;;;1.75;;
29168;SDS011;16219;42.864;23.360;2022-08-14T00:20:04;2.28;;;1.10;;
29168;SDS011;16219;42.864;23.360;2022-08-14T00:22:34;1.42;;;1.33;;
29168;SDS011;16219;42.864;23.360;2022-08-14T00:25:02;1.20;;;1.10;;
29168;SDS011;16219;42.864;23.360;2022-08-14T00:27:29;1.40;;;1.30;;
29168;SDS011;16219;42.864;23.360;2022-08-14T00:29:57;1.27;;;1.23;;
29168;SDS011;16219;42.864;23.360;2022-08-14T00:32:24;1.88;;;1.40;;
29168;SDS011;16219;42.864;23.360;2022-08-14T00:34:51;1.52;;;1.20;;
29168;SDS011;16219;42.864;23.360;2022-08-14T00:37:18;1.58;;;1.48;;
29168;SDS011;16219;42.864;23.360;2022-08-14T00:39:47;0.98;;;0.98;;
29168;SDS011;16219;42.864;23.360;2022-08-14T00:42:17;6.53;;;1.83;;
29168;SDS011;16219;42.864;23.360;2022-08-14T00:44:45;1.65;;;1.50;;
29168;SDS011;16219;42.864;23.360;2022-08-14T00:47:12;1.63;;;0.90;;
29168;SDS011;16219;42.864;23.360;2022-08-14T00:49:40;1.88;;;1.65;;
29168;SDS011;16219;42.864;23.360;2022-08-14T00:52:08;2.65;;;0.98;;
29168;SDS011;16219;42.864;23.360;2022-08-14T00:54:36;1.95;;;1.00;;
29168;SDS011;16219;42.864;23.360;2022-08-14T00:57:06;3.83;;;1.15;;
29168;SDS011;16219;42.864;23.360;2022-08-14T00:59:33;2.17;;;1.38;;
29168;SDS011;16219;42.864;23.360;2022-08-14T01:02:01;1.08;;;1.08;;
29168;SDS011;16219;42.864;23.360;2022-08-14T01:04:30;1.25;;;1.25;;
29168;SDS011;16219;42.864;23.360;2022-08-14T01:07:00;2.83;;;1.95;;
29168;SDS011;16219;42.864;23.360;2022-08-14T01:09:28;1.15;;;1.05;;
29168;SDS011;16219;42.864;23.360;2022-08-14T01:11:56;3.60;;;1.77;;
29168;SDS011;16219;42.864;23.360;2022-08-14T01:14:25;4.70;;;1.63;;
29168;SDS011;16219;42.864;23.360;2022-08-14T01:16:52;1.25;;;1.17;;
29168;SDS011;16219;42.864;23.360;2022-08-14T01:19:19;3.05;;;1.77;;
29168;SDS011;16219;42.864;23.360;2022-08-14T01:22:20;1.30;;;1.30;;
29168;SDS011;16219;42.864;23.360;2022-08-14T01:24:47;1.23;;;1.13;;
29168;SDS011;16219;42.864;23.360;2022-08-14T01:27:15;0.82;;;0.82;;
29168;SDS011;16219;42.864;23.360;2022-08-14T01:29:43;1.63;;;1.52;;
29168;SDS011;16219;42.864;23.360;2022-08-14T01:32:11;1.45;;;1.35;;
29168;SDS011;16219;42.864;23.360;2022-08-14T01:34:39;1.10;;;1.10;;
29168;SDS011;16219;42.864;23.360;2022-08-14T01:37:06;2.55;;;1.98;;
29168;SDS011;16219;42.864;23.360;2022-08-14T01:39:34;1.77;;;1.65;;
29168;SDS011;16219;42.864;23.360;2022-08-14T01:42:02;6.32;;;1.92;;
29168;SDS011;16219;42.864;23.360;2022-08-14T01:44:29;1.25;;;1.20;;
29168;SDS011;16219;42.864;23.360;2022-08-14T01:46:57;1.60;;;1.50;;
29168;SDS011;16219;42.864;23.360;2022-08-14T01:49:26;1.85;;;1.52;;
29168;SDS011;16219;42.864;23.360;2022-08-14T01:51:56;1.98;;;1.85;;
29168;SDS011;16219;42.864;23.360;2022-08-14T01:54:23;1.33;;;1.25;;
29168;SDS011;16219;42.864;23.360;2022-08-14T01:56:52;1.45;;;1.17;;
29168;SDS011;16219;42.864;23.360;2022-08-14T01:59:22;2.70;;;2.03;;
29168;SDS011;16219;42.864;23.360;2022-08-14T02:01:51;1.60;;;1.45;;
29168;SDS011;16219;42.864;23.360;2022-08-14T02:04:19;3.17;;;2.00;;
29168;SDS011;16219;42.864;23.360;2022-08-14T02:06:48;1.60;;;1.50;;
29168;SDS011;16219;42.864;23.360;2022-08-14T02:09:17;1.60;;;1.50;;
29168;SDS011;16219;42.864;23.360;2022-08-14T02:11:45;1.65;;;1.55;;
29168;SDS011;16219;42.864;23.360;2022-08-14T02:14:14;3.30;;;2.60;;
29168;SDS011;16219;42.864;23.360;2022-08-14T02:16:42;1.15;;;0.95;;
29168;SDS011;16219;42.864;23.360;2022-08-14T02:19:13;1.00;;;1.00;;
29168;SDS011;16219;42.864;23.360;2022-08-14T02:21:42;1.20;;;1.15;;
29168;SDS011;16219;42.864;23.360;2022-08-14T02:24:11;4.10;;;1.10;;
29168;SDS011;16219;42.864;23.360;2022-08-14T02:26:40;1.45;;;1.33;;
29168;SDS011;16219;42.864;23.360;2022-08-14T02:29:13;1.65;;;1.55;;
29168;SDS011;16219;42.864;23.360;2022-08-14T02:31:43;1.58;;;1.48;;
29168;SDS011;16219;42.864;23.360;2022-08-14T02:34:14;1.73;;;1.63;;
29168;SDS011;16219;42.864;23.360;2022-08-14T02:36:43;1.52;;;1.42;;
29168;SDS011;16219;42.864;23.360;2022-08-14T02:39:12;1.90;;;1.52;;
29168;SDS011;16219;42.864;23.360;2022-08-14T02:41:41;1.27;;;1.17;;
29168;SDS011;16219;42.864;23.360;2022-08-14T02:44:09;1.27;;;1.15;;
29168;SDS011;16219;42.864;23.360;2022-08-14T02:46:39;1.13;;;1.08;;
29168;SDS011;16219;42.864;23.360;2022-08-14T02:49:09;1.50;;;1.40;;
29168;SDS011;16219;42.864;23.360;2022-08-14T02:51:39;1.13;;;1.13;;
29168;SDS011;16219;42.864;23.360;2022-08-14T02:54:06;2.53;;;2.08;;
29168;SDS011;16219;42.864;23.360;2022-08-14T02:56:34;1.43;;;1.33;;
29168;SDS011;16219;42.864;23.360;2022-08-14T02:59:03;1.38;;;1.27;;
29168;SDS011;16219;42.864;23.360;2022-08-14T03:01:31;1.83;;;1.65;;
29168;SDS011;16219;42.864;23.360;2022-08-14T03:04:01;0.88;;;0.88;;
29168;SDS011;16219;42.864;23.360;2022-08-14T03:06:30;2.42;;;1.40;;
29168;SDS011;16219;42.864;23.360;2022-08-14T03:08:57;1.77;;;1.35;;
29168;SDS011;16219;42.864;23.360;2022-08-14T03:11:25;1.30;;;1.23;;
29168;SDS011;16219;42.864;23.360;2022-08-14T03:13:53;1.63;;;1.52;;
29168;SDS011;16219;42.864;23.360;2022-08-14T03:16:23;1.35;;;1.23;;
29168;SDS011;16219;42.864;23.360;2022-08-14T03:18:52;1.27;;;1.17;;
29168;SDS011;16219;42.864;23.360;2022-08-14T03:21:24;1.23;;;1.20;;
29168;SDS011;16219;42.864;23.360;2022-08-14T03:23:51;0.80;;;0.80;;
29168;SDS011;16219;42.864;23.360;2022-08-14T03:28:53;0.77;;;0.77;;
29168;SDS011;16219;42.864;23.360;2022-08-14T03:31:20;1.35;;;1.25;;
29168;SDS011;16219;42.864;23.360;2022-08-14T03:33:48;3.33;;;2.08;;
29168;SDS011;16219;42.864;23.360;2022-08-14T03:36:16;2.38;;;1.67;;
29168;SDS011;16219;42.864;23.360;2022-08-14T03:38:47;2.03;;;1.75;;
29168;SDS011;16219;42.864;23.360;2022-08-14T03:41:19;2.22;;;1.30;;
29168;SDS011;16219;42.864;23.360;2022-08-14T03:43:48;2.10;;;1.90;;
29168;SDS011;16219;42.864;23.360;2022-08-14T03:46:16;0.98;;;0.98;;
29168;SDS011;16219;42.864;23.360;2022-08-14T03:48:45;1.55;;;1.50;;
29168;SDS011;16219;42.864;23.360;2022-08-14T03:51:12;3.10;;;1.52;;
29168;SDS011;16219;42.864;23.360;2022-08-14T03:53:40;1.60;;;1.50;;
29168;SDS011;16219;42.864;23.360;2022-08-14T03:56:11;3.92;;;1.52;;
29168;SDS011;16219;42.864;23.360;2022-08-14T03:58:40;1.35;;;1.25;;
29168;SDS011;16219;42.864;23.360;2022-08-14T04:01:09;1.17;;;1.08;;
29168;SDS011;16219;42.864;23.360;2022-08-14T04:03:36;0.93;;;0.70;;
29168;SDS011;16219;42.864;23.360;2022-08-14T04:06:04;1.90;;;1.08;;
29168;SDS011;16219;42.864;23.360;2022-08-14T04:08:33;2.88;;;1.77;;
29168;SDS011;16219;42.864;23.360;2022-08-14T04:11:01;1.75;;;1.23;;
29168;SDS011;16219;42.864;23.360;2022-08-14T04:13:30;2.15;;;1.92;;
29168;SDS011;16219;42.864;23.360;2022-08-14T04:15:59;3.47;;;1.60;;
29168;SDS011;16219;42.864;23.360;2022-08-14T04:18:27;3.10;;;2.17;;
29168;SDS011;16219;42.864;23.360;2022-08-14T04:20:55;1.23;;;1.15;;
29168;SDS011;16219;42.864;23.360;2022-08-14T04:23:23;2.90;;;1.67;;
29168;SDS011;16219;42.864;23.360;2022-08-14T04:25:51;1.15;;;1.15;;
29168;SDS011;16219;42.864;23.360;2022-08-14T04:28:19;1.85;;;1.48;;
29168;SDS011;16219;42.864;23.360;2022-08-14T04:30:48;3.25;;;1.42;;
29168;SDS011;16219;42.864;23.360;2022-08-14T04:33:15;0.90;;;0.90;;
29168;SDS011;16219;42.864;23.360;2022-08-14T04:35:42;1.20;;;1.10;;
29168;SDS011;16219;42.864;23.360;2022-08-14T04:38:10;2.25;;;1.52;;
29168;SDS011;16219;42.864;23.360;2022-08-14T04:40:55;3.15;;;1.77;;
29168;SDS011;16219;42.864;23.360;2022-08-14T04:43:39;1.20;;;1.10;;
29168;SDS011;16219;42.864;23.360;2022-08-14T04:46:10;2.67;;;2.28;;
29168;SDS011;16219;42.864;23.360;2022-08-14T04:48:40;1.08;;;1.08;;
29168;SDS011;16219;42.864;23.360;2022-08-14T04:51:07;1.42;;;1.33;;
29168;SDS011;16219;42.864;23.360;2022-08-14T04:53:35;3.15;;;1.90;;
29168;SDS011;16219;42.864;23.360;2022-08-14T04:56:06;3.38;;;1.33;;
29168;SDS011;16219;42.864;23.360;2022-08-14T04:58:33;1.10;;;1.10;;
29168;SDS011;16219;42.864;23.360;2022-08-14T05:01:02;1.15;;;1.15;;
29168;SDS011;16219;42.864;23.360;2022-08-14T05:03:36;1.60;;;1.50;;
29168;SDS011;16219;42.864;23.360;2022-08-14T05:06:04;1.63;;;1.52;;
29168;SDS011;16219;42.864;23.360;2022-08-14T05:08:33;1.52;;;1.42;;
29168;SDS011;16219;42.864;23.360;2022-08-14T05:11:01;1.90;;;1.80;;
29168;SDS011;16219;42.864;23.360;2022-08-14T05:13:31;2.05;;;1.40;;
29168;SDS011;16219;42.864;23.360;2022-08-14T05:16:00;1.60;;;1.48;;
29168;SDS011;16219;42.864;23.360;2022-08-14T05:18:28;3.78;;;2.25;;
29168;SDS011;16219;42.864;23.360;2022-08-14T05:20:59;1.52;;;1.30;;
29168;SDS011;16219;42.864;23.360;2022-08-14T05:23:27;2.60;;;1.63;;
29168;SDS011;16219;42.864;23.360;2022-08-14T05:25:57;1.52;;;1.42;;
29168;SDS011;16219;42.864;23.360;2022-08-14T05:28:27;1.92;;;1.65;;
29168;SDS011;16219;42.864;23.360;2022-08-14T05:30:56;1.48;;;1.38;;
29168;SDS011;16219;42.864;23.360;2022-08-14T05:33:25;0.90;;;0.90;;
29168;SDS011;16219;42.864;23.360;2022-08-14T05:35:55;3.33;;;2.15;;
29168;SDS011;16219;42.864;23.360;2022-08-14T05:38:27;1.13;;;1.13;;
29168;SDS011;16219;42.864;23.360;2022-08-14T05:40:58;1.90;;;1.80;;
29168;SDS011;16219;42.864;23.360;2022-08-14T05:43:26;7.78;;;1.60;;
29168;SDS011;16219;42.864;23.360;2022-08-14T05:45:55;4.35;;;2.15;;
29168;SDS011;16219;42.864;23.360;2022-08-14T05:48:23;2.35;;;1.67;;
29168;SDS011;16219;42.864;23.360;2022-08-14T05:50:51;0.73;;;0.73;;
29168;SDS011;16219;42.864;23.360;2022-08-14T05:53:19;2.03;;;1.63;;
29168;SDS011;16219;42.864;23.360;2022-08-14T05:55:49;3.38;;;2.25;;
29168;SDS011;16219;42.864;23.360;2022-08-14T05:58:16;2.70;;;1.58;;
29168;SDS011;16219;42.864;23.360;2022-08-14T06:00:44;6.13;;;1.40;;
29168;SDS011;16219;42.864;23.360;2022-08-14T06:03:13;2.75;;;2.13;;
29168;SDS011;16219;42.864;23.360;2022-08-14T06:05:42;2.47;;;1.77;;
29168;SDS011;16219;42.864;23.360;2022-08-14T06:08:15;3.58;;;2.35;;
29168;SDS011;16219;42.864;23.360;2022-08-14T06:10:43;3.10;;;1.73;;
29168;SDS011;16219;42.864;23.360;2022-08-14T06:13:12;9.23;;;2.65;;
29168;SDS011;16219;42.864;23.360;2022-08-14T06:15:40;3.25;;;2.25;;
29168;SDS011;16219;42.864;23.360;2022-08-14T06:18:08;2.35;;;2.17;;
29168;SDS011;16219;42.864;23.360;2022-08-14T06:20:37;4.68;;;2.95;;
29168;SDS011;16219;42.864;23.360;2022-08-14T06:23:05;4.00;;;2.97;;
29168;SDS011;16219;42.864;23.360;2022-08-14T06:25:32;8.23;;;4.32;;
29168;SDS011;16219;42.864;23.360;2022-08-14T06:28:00;5.72;;;3.08;;
29168;SDS011;16219;42.864;23.360;2022-08-14T06:30:32;4.60;;;3.17;;
29168;SDS011;16219;42.864;23.360;2022-08-14T06:33:01;3.70;;;2.58;;
29168;SDS011;16219;42.864;23.360;2022-08-14T06:35:28;3.50;;;3.20;;
29168;SDS011;16219;42.864;23.360;2022-08-14T06:37:56;4.28;;;2.72;;
29168;SDS011;16219;42.864;23.360;2022-08-14T06:40:26;3.20;;;2.90;;
29168;SDS011;16219;42.864;23.360;2022-08-14T06:42:55;5.90;;;3.97;;
29168;SDS011;16219;42.864;23.360;2022-08-14T06:45:23;3.72;;;2.35;;
29168;SDS011;16219;42.864;23.360;2022-08-14T06:47:52;2.40;;;2.20;;
29168;SDS011;16219;42.864;23.360;2022-08-14T06:50:21;3.75;;;3.00;;
29168;SDS011;16219;42.864;23.360;2022-08-14T06:52:49;4.53;;;2.95;;
29168;SDS011;16219;42.864;23.360;2022-08-14T06:55:17;4.80;;;3.85;;
29168;SDS011;16219;42.864;23.360;2022-08-14T06:57:46;3.97;;;2.97;;
29168;SDS011;16219;42.864;23.360;2022-08-14T07:00:15;7.07;;;4.30;;
29168;SDS011;16219;42.864;23.360;2022-08-14T07:02:44;2.47;;;2.33;;
29168;SDS011;16219;42.864;23.360;2022-08-14T07:05:30;7.97;;;3.17;;
29168;SDS011;16219;42.864;23.360;2022-08-14T07:08:12;4.90;;;3.58;;
29168;SDS011;16219;42.864;23.360;2022-08-14T07:10:41;9.15;;;3.05;;
29168;SDS011;16219;42.864;23.360;2022-08-14T07:13:09;11.70;;;3.65;;
29168;SDS011;16219;42.864;23.360;2022-08-14T07:15:37;5.13;;;2.92;;
29168;SDS011;16219;42.864;23.360;2022-08-14T07:18:05;3.30;;;2.72;;
29168;SDS011;16219;42.864;23.360;2022-08-14T07:20:35;3.35;;;3.05;;
29168;SDS011;16219;42.864;23.360;2022-08-14T07:23:04;4.95;;;3.13;;
29168;SDS011;16219;42.864;23.360;2022-08-14T07:25:33;4.25;;;3.40;;
29168;SDS011;16219;42.864;23.360;2022-08-14T07:28:07;4.47;;;4.03;;
29168;SDS011;16219;42.864;23.360;2022-08-14T07:30:35;3.60;;;2.75;;
29168;SDS011;16219;42.864;23.360;2022-08-14T07:33:03;2.35;;;2.15;;
29168;SDS011;16219;42.864;23.360;2022-08-14T07:35:31;2.50;;;2.30;;
29168;SDS011;16219;42.864;23.360;2022-08-14T07:38:00;9.65;;;3.65;;
29168;SDS011;16219;42.864;23.360;2022-08-14T07:40:28;1.95;;;1.85;;
29168;SDS011;16219;42.864;23.360;2022-08-14T07:42:56;3.38;;;2.50;;
29168;SDS011;16219;42.864;23.360;2022-08-14T07:45:23;2.00;;;1.90;;
29168;SDS011;16219;42.864;23.360;2022-08-14T07:47:51;2.10;;;1.98;;
29168;SDS011;16219;42.864;23.360;2022-08-14T07:50:20;2.45;;;1.90;;
29168;SDS011;16219;42.864;23.360;2022-08-14T07:52:48;3.53;;;2.20;;
29168;SDS011;16219;42.864;23.360;2022-08-14T07:55:18;4.93;;;2.28;;
29168;SDS011;16219;42.864;23.360;2022-08-14T07:57:45;2.10;;;1.98;;
29168;SDS011;16219;42.864;23.360;2022-08-14T08:00:15;3.45;;;2.30;;
29168;SDS011;16219;42.864;23.360;2022-08-14T08:02:44;2.95;;;2.60;;
29168;SDS011;16219;42.864;23.360;2022-08-14T08:05:14;3.53;;;2.70;;
29168;SDS011;16219;42.864;23.360;2022-08-14T08:07:42;1.98;;;1.88;;
29168;SDS011;16219;42.864;23.360;2022-08-14T08:10:11;1.70;;;1.60;;
29168;SDS011;16219;42.864;23.360;2022-08-14T08:13:00;1.77;;;1.65;;
29168;SDS011;16219;42.864;23.360;2022-08-14T08:15:30;4.13;;;2.72;;
29168;SDS011;16219;42.864;23.360;2022-08-14T08:18:01;3.33;;;3.03;;
29168;SDS011;16219;42.864;23.360;2022-08-14T08:20:29;2.90;;;2.60;;
29168;SDS011;16219;42.864;23.360;2022-08-14T08:22:59;3.58;;;2.40;;
29168;SDS011;16219;42.864;23.360;2022-08-14T08:25:29;3.63;;;2.03;;
29168;SDS011;16219;42.864;23.360;2022-08-14T08:28:00;5.78;;;3.45;;
29168;SDS011;16219;42.864;23.360;2022-08-14T08:30:31;2.22;;;1.77;;
29168;SDS011;16219;42.864;23.360;2022-08-14T08:32:59;3.03;;;2.50;;
29168;SDS011;16219;42.864;23.360;2022-08-14T08:35:27;2.67;;;1.95;;
29168;SDS011;16219;42.864;23.360;2022-08-14T08:38:00;2.22;;;2.03;;
29168;SDS011;16219;42.864;23.360;2022-08-14T08:40:30;1.77;;;1.27;;
29168;SDS011;16219;42.864;23.360;2022-08-14T08:43:01;3.78;;;2.35;;
29168;SDS011;16219;42.864;23.360;2022-08-14T08:45:31;2.97;;;1.83;;
29168;SDS011;16219;42.864;23.360;2022-08-14T08:47:59;1.70;;;1.60;;
29168;SDS011;16219;42.864;23.360;2022-08-14T08:50:28;1.30;;;1.27;;
29168;SDS011;16219;42.864;23.360;2022-08-14T08:52:58;14.95;;;2.28;;
29168;SDS011;16219;42.864;23.360;2022-08-14T08:55:27;1.85;;;1.73;;
29168;SDS011;16219;42.864;23.360;2022-08-14T08:57:56;2.55;;;1.55;;
29168;SDS011;16219;42.864;23.360;2022-08-14T09:00:27;2.50;;;2.15;;
29168;SDS011;16219;42.864;23.360;2022-08-14T09:03:00;1.93;;;1.80;;
29168;SDS011;16219;42.864;23.360;2022-08-14T09:05:30;1.83;;;1.73;;
29168;SDS011;16219;42.864;23.360;2022-08-14T09:08:09;2.38;;;1.40;;
29168;SDS011;16219;42.864;23.360;2022-08-14T09:10:41;1.80;;;1.70;;
29168;SDS011;16219;42.864;23.360;2022-08-14T09:13:09;1.95;;;1.80;;
29168;SDS011;16219;42.864;23.360;2022-08-14T09:15:40;3.67;;;1.33;;
29168;SDS011;16219;42.864;23.360;2022-08-14T09:18:09;1.48;;;1.38;;
29168;SDS011;16219;42.864;23.360;2022-08-14T09:20:39;3.05;;;1.75;;
29168;SDS011;16219;42.864;23.360;2022-08-14T09:23:08;6.97;;;1.77;;
29168;SDS011;16219;42.864;23.360;2022-08-14T09:25:36;1.52;;;1.42;;
29168;SDS011;16219;42.864;23.360;2022-08-14T09:28:06;1.35;;;1.25;;
29168;SDS011;16219;42.864;23.360;2022-08-14T09:30:35;2.35;;;2.15;;
29168;SDS011;16219;42.864;23.360;2022-08-14T09:36:24;0.85;;;0.85;;
29168;SDS011;16219;42.864;23.360;2022-08-14T09:39:00;2.92;;;2.03;;
29168;SDS011;16219;42.864;23.360;2022-08-14T09:41:37;1.35;;;1.25;;
29168;SDS011;16219;42.864;23.360;2022-08-14T09:44:17;1.85;;;1.75;;
29168;SDS011;16219;42.864;23.360;2022-08-14T09:46:55;1.33;;;1.23;;
29168;SDS011;16219;42.864;23.360;2022-08-14T09:49:30;2.42;;;1.80;;
29168;SDS011;16219;42.864;23.360;2022-08-14T09:52:05;2.53;;;1.88;;
29168;SDS011;16219;42.864;23.360;2022-08-14T09:54:36;2.80;;;1.30;;
29168;SDS011;16219;42.864;23.360;2022-08-14T09:57:05;2.53;;;1.58;;
29168;SDS011;16219;42.864;23.360;2022-08-14T09:59:41;1.13;;;1.00;;
29168;SDS011;16219;42.864;23.360;2022-08-14T10:02:23;1.38;;;1.27;;
29168;SDS011;16219;42.864;23.360;2022-08-14T10:04:58;1.02;;;1.02;;
29168;SDS011;16219;42.864;23.360;2022-08-14T10:07:32;2.00;;;1.17;;
29168;SDS011;16219;42.864;23.360;2022-08-14T10:10:01;1.35;;;1.25;;
29168;SDS011;16219;42.864;23.360;2022-08-14T10:12:40;3.13;;;1.70;;
29168;SDS011;16219;42.864;23.360;2022-08-14T10:15:16;1.05;;;0.82;;
29168;SDS011;16219;42.864;23.360;2022-08-14T10:17:46;1.33;;;1.23;;
29168;SDS011;16219;42.864;23.360;2022-08-14T10:20:15;2.70;;;1.08;;
29168;SDS011;16219;42.864;23.360;2022-08-14T10:22:47;0.52;;;0.52;;
29168;SDS011;16219;42.864;23.360;2022-08-14T10:25:15;0.98;;;0.98;;
29168;SDS011;16219;42.864;23.360;2022-08-14T10:27:44;2.67;;;0.90;;
29168;SDS011;16219;42.864;23.360;2022-08-14T10:30:15;1.40;;;1.30;;
29168;SDS011;16219;42.864;23.360;2022-08-14T10:32:45;2.05;;;1.27;;
29168;SDS011;16219;42.864;23.360;2022-08-14T10:35:13;1.20;;;1.10;;
29168;SDS011;16219;42.864;23.360;2022-08-14T10:37:44;1.15;;;1.10;;
29168;SDS011;16219;42.864;23.360;2022-08-14T10:40:24;0.30;;;0.30;;
29168;SDS011;16219;42.864;23.360;2022-08-14T10:42:53;1.25;;;1.15;;
29168;SDS011;16219;42.864;23.360;2022-08-14T10:45:21;3.35;;;1.23;;
29168;SDS011;16219;42.864;23.360;2022-08-14T10:47:50;0.47;;;0.47;;
29168;SDS011;16219;42.864;23.360;2022-08-14T10:50:27;1.45;;;1.33;;
29168;SDS011;16219;42.864;23.360;2022-08-14T10:52:55;0.75;;;0.50;;
29168;SDS011;16219;42.864;23.360;2022-08-14T10:55:30;0.77;;;0.70;;
29168;SDS011;16219;42.864;23.360;2022-08-14T10:58:04;0.70;;;0.70;;
29168;SDS011;16219;42.864;23.360;2022-08-14T11:00:36;1.25;;;1.02;;
29168;SDS011;16219;42.864;23.360;2022-08-14T11:03:05;0.80;;;0.77;;
29168;SDS011;16219;42.864;23.360;2022-08-14T11:05:38;0.52;;;0.52;;
29168;SDS011;16219;42.864;23.360;2022-08-14T11:08:07;0.60;;;0.60;;
29168;SDS011;16219;42.864;23.360;2022-08-14T11:10:41;1.45;;;0.90;;
29168;SDS011;16219;42.864;23.360;2022-08-14T11:14:02;0.70;;;0.70;;
29168;SDS011;16219;42.864;23.360;2022-08-14T11:16:18;2.45;;;1.20;;
29168;SDS011;16219;42.864;23.360;2022-08-14T11:18:46;1.65;;;1.13;;
29168;SDS011;16219;42.864;23.360;2022-08-14T11:21:15;0.38;;;0.38;;
29168;SDS011;16219;42.864;23.360;2022-08-14T11:23:45;4.00;;;1.00;;
29168;SDS011;16219;42.864;23.360;2022-08-14T11:26:18;0.80;;;0.80;;
29168;SDS011;16219;42.864;23.360;2022-08-14T11:28:49;0.63;;;0.63;;
29168;SDS011;16219;42.864;23.360;2022-08-14T11:31:19;1.30;;;1.23;;
29168;SDS011;16219;42.864;23.360;2022-08-14T11:33:50;0.50;;;0.40;;
29168;SDS011;16219;42.864;23.360;2022-08-14T11:36:22;0.60;;;0.60;;
29168;SDS011;16219;42.864;23.360;2022-08-14T11:38:53;0.63;;;0.63;;
29168;SDS011;16219;42.864;23.360;2022-08-14T11:41:24;2.17;;;0.68;;
29168;SDS011;16219;42.864;23.360;2022-08-14T11:43:53;0.47;;;0.47;;
29168;SDS011;16219;42.864;23.360;2022-08-14T11:46:21;0.98;;;0.93;;
29168;SDS011;16219;42.864;23.360;2022-08-14T11:48:50;0.60;;;0.60;;
29168;SDS011;16219;42.864;23.360;2022-08-14T11:51:22;1.30;;;0.85;;
29168;SDS011;16219;42.864;23.360;2022-08-14T11:53:53;0.38;;;0.38;;
29168;SDS011;16219;42.864;23.360;2022-08-14T11:56:24;0.47;;;0.47;;
29168;SDS011;16219;42.864;23.360;2022-08-14T11:59:01;0.63;;;0.63;;
29168;SDS011;16219;42.864;23.360;2022-08-14T12:01:35;0.60;;;0.60;;
29168;SDS011;16219;42.864;23.360;2022-08-14T12:04:14;1.52;;;1.02;;
29168;SDS011;16219;42.864;23.360;2022-08-14T12:06:50;1.27;;;0.73;;
29168;SDS011;16219;42.864;23.360;2022-08-14T12:09:26;0.50;;;0.50;;
29168;SDS011;16219;42.864;23.360;2022-08-14T12:11:57;1.20;;;0.70;;
29168;SDS011;16219;42.864;23.360;2022-08-14T12:14:28;0.75;;;0.75;;
29168;SDS011;16219;42.864;23.360;2022-08-14T12:16:59;1.05;;;0.95;;
29168;SDS011;16219;42.864;23.360;2022-08-14T12:19:41;0.90;;;0.90;;
29168;SDS011;16219;42.864;23.360;2022-08-14T12:22:14;0.43;;;0.43;;
29168;SDS011;16219;42.864;23.360;2022-08-14T12:24:42;0.68;;;0.68;;
29168;SDS011;16219;42.864;23.360;2022-08-14T12:27:13;0.85;;;0.85;;
29168;SDS011;16219;42.864;23.360;2022-08-14T12:29:49;2.63;;;1.00;;
29168;SDS011;16219;42.864;23.360;2022-08-14T12:32:18;0.68;;;0.65;;
29168;SDS011;16219;42.864;23.360;2022-08-14T12:34:51;1.20;;;1.13;;
29168;SDS011;16219;42.864;23.360;2022-08-14T12:37:27;0.90;;;0.70;;
29168;SDS011;16219;42.864;23.360;2022-08-14T12:40:07;0.40;;;0.40;;
29168;SDS011;16219;42.864;23.360;2022-08-14T12:42:38;1.05;;;0.98;;
29168;SDS011;16219;42.864;23.360;2022-08-14T12:45:07;0.85;;;0.85;;
29168;SDS011;16219;42.864;23.360;2022-08-14T12:47:36;1.20;;;1.10;;
29168;SDS011;16219;42.864;23.360;2022-08-14T12:50:07;0.70;;;0.60;;
29168;SDS011;16219;42.864;23.360;2022-08-14T12:52:36;0.47;;;0.47;;
29168;SDS011;16219;42.864;23.360;2022-08-14T12:55:06;0.55;;;0.50;;
29168;SDS011;16219;42.864;23.360;2022-08-14T12:57:38;1.63;;;0.82;;
29168;SDS011;16219;42.864;23.360;2022-08-14T13:00:09;0.73;;;0.60;;
29168;SDS011;16219;42.864;23.360;2022-08-14T13:02:40;0.45;;;0.45;;
29168;SDS011;16219;42.864;23.360;2022-08-14T13:05:08;0.80;;;0.70;;
29168;SDS011;16219;42.864;23.360;2022-08-14T13:07:37;0.45;;;0.45;;
29168;SDS011;16219;42.864;23.360;2022-08-14T13:10:10;1.57;;;0.80;;
29168;SDS011;16219;42.864;23.360;2022-08-14T13:12:42;0.75;;;0.40;;
29168;SDS011;16219;42.864;23.360;2022-08-14T13:15:11;0.70;;;0.70;;
29168;SDS011;16219;42.864;23.360;2022-08-14T13:17:43;0.60;;;0.60;;
29168;SDS011;16219;42.864;23.360;2022-08-14T13:20:14;0.63;;;0.63;;
29168;SDS011;16219;42.864;23.360;2022-08-14T13:22:44;0.20;;;0.20;;
29168;SDS011;16219;42.864;23.360;2022-08-14T13:25:12;0.70;;;0.63;;
29168;SDS011;16219;42.864;23.360;2022-08-14T13:27:46;0.60;;;0.45;;
29168;SDS011;16219;42.864;23.360;2022-08-14T13:30:16;0.65;;;0.65;;
29168;SDS011;16219;42.864;23.360;2022-08-14T13:32:44;0.57;;;0.55;;
29168;SDS011;16219;42.864;23.360;2022-08-14T13:35:14;0.65;;;0.40;;
29168;SDS011;16219;42.864;23.360;2022-08-14T13:37:42;0.68;;;0.57;;
29168;SDS011;16219;42.864;23.360;2022-08-14T13:40:15;0.47;;;0.47;;
29168;SDS011;16219;42.864;23.360;2022-08-14T13:42:47;2.17;;;1.10;;
29168;SDS011;16219;42.864;23.360;2022-08-14T13:45:16;0.75;;;0.75;;
29168;SDS011;16219;42.864;23.360;2022-08-14T13:47:46;0.30;;;0.30;;
29168;SDS011;16219;42.864;23.360;2022-08-14T13:50:14;0.38;;;0.35;;
29168;SDS011;16219;42.864;23.360;2022-08-14T13:52:46;0.32;;;0.32;;
29168;SDS011;16219;42.864;23.360;2022-08-14T13:55:16;0.73;;;0.73;;
29168;SDS011;16219;42.864;23.360;2022-08-14T13:57:48;1.15;;;0.60;;
29168;SDS011;16219;42.864;23.360;2022-08-14T14:00:19;0.73;;;0.63;;
29168;SDS011;16219;42.864;23.360;2022-08-14T14:02:46;1.40;;;0.82;;
29168;SDS011;16219;42.864;23.360;2022-08-14T14:05:15;0.30;;;0.30;;
29168;SDS011;16219;42.864;23.360;2022-08-14T14:07:48;0.50;;;0.50;;
29168;SDS011;16219;42.864;23.360;2022-08-14T14:10:18;0.82;;;0.70;;
29168;SDS011;16219;42.864;23.360;2022-08-14T14:12:49;0.35;;;0.35;;
29168;SDS011;16219;42.864;23.360;2022-08-14T14:15:20;0.40;;;0.40;;
29168;SDS011;16219;42.864;23.360;2022-08-14T14:17:47;0.30;;;0.30;;
29168;SDS011;16219;42.864;23.360;2022-08-14T14:20:16;0.30;;;0.30;;
29168;SDS011;16219;42.864;23.360;2022-08-14T14:22:45;0.20;;;0.20;;
29168;SDS011;16219;42.864;23.360;2022-08-14T14:25:15;0.60;;;0.60;;
29168;SDS011;16219;42.864;23.360;2022-08-14T14:27:44;0.43;;;0.40;;
29168;SDS011;16219;42.864;23.360;2022-08-14T14:30:15;1.13;;;0.95;;
29168;SDS011;16219;42.864;23.360;2022-08-14T14:32:47;0.75;;;0.55;;
29168;SDS011;16219;42.864;23.360;2022-08-14T14:35:16;0.50;;;0.50;;
29168;SDS011;16219;42.864;23.360;2022-08-14T14:37:45;0.57;;;0.43;;
29168;SDS011;16219;42.864;23.360;2022-08-14T14:40:16;0.57;;;0.57;;
29168;SDS011;16219;42.864;23.360;2022-08-14T14:42:44;0.65;;;0.65;;
29168;SDS011;16219;42.864;23.360;2022-08-14T14:45:18;0.60;;;0.60;;
29168;SDS011;16219;42.864;23.360;2022-08-14T14:47:49;0.90;;;0.85;;
29168;SDS011;16219;42.864;23.360;2022-08-14T14:50:18;1.83;;;0.40;;
29168;SDS011;16219;42.864;23.360;2022-08-14T14:52:46;0.30;;;0.30;;
29168;SDS011;16219;42.864;23.360;2022-08-14T14:55:15;0.60;;;0.60;;